Time,TemperatureF,DewpointF,PressureIn,WindDirection,WindDirectionDegrees,WindSpeedMPH,WindSpeedGustMPH,Humidity,HourlyPrecipIn,Conditions,Clouds,dailyrainin,SoftwareType,DateUTC
2013-07-07 00:01:00,64.7,63.0,30.01,East,90,0.0,0.0,95,0.00,,,0.00,weatherlink.com 1.10,2013-07-07 04:01:00,
2013-07-07 00:16:00,64.4,63.0,30.01,East,91,0.0,0.0,96,0.00,,,0.00,weatherlink.com 1.10,2013-07-07 04:16:00,
2013-07-07 00:31:00,64.3,63.0,30.01,East,91,0.0,0.0,96,0.00,,,0.00,weatherlink.com 1.10,2013-07-07 04:31:00,
2013-07-07 00:47:00,64.4,63.0,30.02,East,90,1.0,1.0,96,0.00,,,0.00,weatherlink.com 1.10,2013-07-07 04:47:00,
2013-07-07 01:02:00,64.5,63.0,30.01,ESE,108,0.0,0.0,96,0.00,,,0.00,weatherlink.com 1.10,2013-07-07 05:02:00,
2013-07-07 01:17:00,64.0,63.0,30.00,ESE,107,0.0,0.0,96,0.00,,,0.00,weatherlink.com 1.10,2013-07-07 05:17:00,
2013-07-07 01:32:00,63.7,63.0,30.00,ESE,108,0.0,0.0,96,0.00,,,0.00,weatherlink.com 1.10,2013-07-07 05:32:00,
2013-07-07 01:47:00,63.7,63.0,29.99,ESE,122,0.0,1.0,97,0.00,,,0.00,weatherlink.com 1.10,2013-07-07 05:47:00,
2013-07-07 02:02:00,64.3,64.0,29.99,ESE,123,0.0,0.0,97,0.00,,,0.00,weatherlink.com 1.10,2013-07-07 06:02:00,
2013-07-07 02:17:00,64.4,64.0,29.98,ESE,114,0.0,1.0,97,0.00,,,0.00,weatherlink.com 1.10,2013-07-07 06:17:00,
2013-07-07 02:32:00,64.6,64.0,29.98,ESE,115,0.0,0.0,97,0.00,,,0.00,weatherlink.com 1.10,2013-07-07 06:32:00,
2013-07-07 02:47:00,65.0,64.0,29.98,ESE,119,0.0,0.0,97,0.00,,,0.00,weatherlink.com 1.10,2013-07-07 06:47:00,
2013-07-07 03:02:00,65.0,64.0,29.98,ESE,119,0.0,0.0,97,0.00,,,0.00,weatherlink.com 1.10,2013-07-07 07:02:00,
2013-07-07 03:17:00,64.9,64.0,29.98,ESE,119,0.0,0.0,97,0.00,,,0.00,weatherlink.com 1.10,2013-07-07 07:17:00,
2013-07-07 03:32:00,65.0,64.0,29.98,ESE,105,0.0,0.0,97,0.00,,,0.00,weatherlink.com 1.10,2013-07-07 07:32:00,
2013-07-07 03:47:00,64.9,64.0,29.98,ESE,105,0.0,0.0,97,0.00,,,0.00,weatherlink.com 1.10,2013-07-07 07:47:00,
2013-07-07 04:02:00,65.1,64.0,29.97,ESE,104,0.0,0.0,97,0.00,,,0.00,weatherlink.com 1.10,2013-07-07 08:02:00,
2013-07-07 04:17:00,65.0,64.0,29.97,East,95,0.0,0.0,97,0.00,,,0.00,weatherlink.com 1.10,2013-07-07 08:17:00,
2013-07-07 04:32:00,64.9,64.0,29.97,East,94,0.0,0.0,97,0.00,,,0.00,weatherlink.com 1.10,2013-07-07 08:32:00,
2013-07-07 04:47:00,64.7,64.0,29.97,East,94,0.0,0.0,97,0.00,,,0.00,weatherlink.com 1.10,2013-07-07 08:47:00,
2013-07-07 05:02:00,64.7,64.0,29.98,East,95,0.0,0.0,97,0.00,,,0.00,weatherlink.com 1.10,2013-07-07 09:02:00,
2013-07-07 05:17:00,64.9,64.0,29.97,ESE,105,0.0,2.0,97,0.00,,,0.00,weatherlink.com 1.10,2013-07-07 09:17:00,
2013-07-07 05:32:00,64.7,64.0,29.98,ESE,105,0.0,0.0,97,0.00,,,0.00,weatherlink.com 1.10,2013-07-07 09:32:00,
2013-07-07 05:47:00,64.8,64.0,29.98,SE,126,0.0,1.0,97,0.00,,,0.00,weatherlink.com 1.10,2013-07-07 09:47:00,
2013-07-07 06:02:00,64.7,64.0,29.99,SE,126,0.0,0.0,97,0.00,,,0.00,weatherlink.com 1.10,2013-07-07 10:02:00,
2013-07-07 06:17:00,64.5,64.0,29.99,SE,126,0.0,0.0,97,0.00,,,0.00,weatherlink.com 1.10,2013-07-07 10:17:00,
2013-07-07 06:32:00,64.7,64.0,30.00,SE,126,0.0,0.0,97,0.00,,,0.00,weatherlink.com 1.10,2013-07-07 10:32:00,
2013-07-07 06:47:00,65.1,65.0,30.00,ESE,117,0.0,0.0,98,0.00,,,0.00,weatherlink.com 1.10,2013-07-07 10:47:00,
2013-07-07 07:02:00,65.3,65.0,30.01,SSE,158,0.0,0.0,98,0.00,,,0.00,weatherlink.com 1.10,2013-07-07 11:02:00,
2013-07-07 07:17:00,65.6,65.0,30.01,ESE,122,0.0,0.0,98,0.00,,,0.00,weatherlink.com 1.10,2013-07-07 11:17:00,
2013-07-07 07:32:00,65.8,65.0,30.01,SE,126,0.0,0.0,98,0.00,,,0.00,weatherlink.com 1.10,2013-07-07 11:32:00,
2013-07-07 07:47:00,65.9,65.0,30.01,SE,142,0.0,0.0,98,0.00,,,0.00,weatherlink.com 1.10,2013-07-07 11:47:00,
2013-07-07 08:02:00,66.2,66.0,30.02,SE,129,0.0,0.0,98,0.00,,,0.00,weatherlink.com 1.10,2013-07-07 12:02:00,
2013-07-07 08:17:00,66.4,66.0,30.02,SE,129,0.0,1.0,98,0.00,,,0.00,weatherlink.com 1.10,2013-07-07 12:17:00,
2013-07-07 08:32:00,66.7,66.0,30.02,ESE,105,2.0,3.0,98,0.00,,,0.00,weatherlink.com 1.10,2013-07-07 12:32:00,
2013-07-07 08:47:00,66.9,66.0,30.03,SE,131,2.0,4.0,98,0.00,,,0.00,weatherlink.com 1.10,2013-07-07 12:47:00,
2013-07-07 09:02:00,67.2,67.0,30.03,SW,218,0.0,3.0,98,0.00,,,0.00,weatherlink.com 1.10,2013-07-07 13:02:00,
2013-07-07 09:17:00,67.8,67.0,30.03,ESE,103,0.0,3.0,97,0.00,,,0.00,weatherlink.com 1.10,2013-07-07 13:17:00,
2013-07-07 09:32:00,68.2,67.0,30.04,North,354,1.0,2.0,97,0.00,,,0.00,weatherlink.com 1.10,2013-07-07 13:32:00,
2013-07-07 09:47:00,68.1,67.0,30.04,ESE,122,0.0,2.0,96,0.00,,,0.00,weatherlink.com 1.10,2013-07-07 13:47:00,
2013-07-07 10:02:00,68.5,67.0,30.04,WSW,256,0.0,3.0,96,0.00,,,0.00,weatherlink.com 1.10,2013-07-07 14:02:00,
2013-07-07 10:17:00,69.9,68.0,30.04,SE,133,2.0,2.0,94,0.00,,,0.00,weatherlink.com 1.10,2013-07-07 14:17:00,
2013-07-07 10:32:00,70.8,68.0,30.04,South,190,0.0,1.0,92,0.00,,,0.00,weatherlink.com 1.10,2013-07-07 14:32:00,
2013-07-07 10:47:00,72.9,70.0,30.04,SE,145,2.0,4.0,89,0.00,,,0.00,weatherlink.com 1.10,2013-07-07 14:47:00,
2013-07-07 11:03:00,74.2,70.0,30.03,ESE,117,0.0,4.0,85,0.00,,,0.00,weatherlink.com 1.10,2013-07-07 15:03:00,
2013-07-07 11:18:00,75.3,70.0,30.03,ENE,67,1.0,4.0,82,0.00,,,0.00,weatherlink.com 1.10,2013-07-07 15:18:00,
2013-07-07 11:33:00,76.6,70.0,30.03,East,83,0.0,3.0,80,0.00,,,0.00,weatherlink.com 1.10,2013-07-07 15:33:00,
2013-07-07 11:48:00,77.5,71.0,30.03,SW,233,1.0,3.0,79,0.00,,,0.00,weatherlink.com 1.10,2013-07-07 15:48:00,
2013-07-07 12:03:00,77.7,70.0,30.03,WSW,252,1.0,5.0,76,0.00,,,0.00,weatherlink.com 1.10,2013-07-07 16:03:00,
2013-07-07 12:18:00,78.4,71.0,30.03,SW,235,2.0,4.0,77,0.00,,,0.00,weatherlink.com 1.10,2013-07-07 16:18:00,
2013-07-07 12:33:00,79.0,69.0,30.02,ESE,120,1.0,3.0,71,0.00,,,0.00,weatherlink.com 1.10,2013-07-07 16:33:00,
2013-07-07 12:48:00,79.1,71.0,30.02,SW,221,1.0,4.0,76,0.00,,,0.00,weatherlink.com 1.10,2013-07-07 16:48:00,
2013-07-07 13:03:00,80.8,71.0,30.02,SW,218,3.0,3.0,71,0.00,,,0.00,weatherlink.com 1.10,2013-07-07 17:03:00,
2013-07-07 13:18:00,81.1,70.0,30.02,South,169,3.0,3.0,70,0.00,,,0.00,weatherlink.com 1.10,2013-07-07 17:18:00,
2013-07-07 13:33:00,80.6,70.0,30.02,NNE,25,0.0,4.0,71,0.00,,,0.00,weatherlink.com 1.10,2013-07-07 17:33:00,
2013-07-07 13:48:00,80.8,70.0,30.02,North,360,4.0,5.0,69,0.00,,,0.00,weatherlink.com 1.10,2013-07-07 17:48:00,
2013-07-07 14:03:00,81.9,69.0,30.01,ESE,120,0.0,3.0,66,0.00,,,0.00,weatherlink.com 1.10,2013-07-07 18:03:00,
2013-07-07 14:18:00,82.2,70.0,30.01,ESE,120,1.0,2.0,67,0.00,,,0.00,weatherlink.com 1.10,2013-07-07 18:18:00,
2013-07-07 14:33:00,83.2,70.0,30.00,SW,217,0.0,1.0,64,0.00,,,0.00,weatherlink.com 1.10,2013-07-07 18:33:00,
2013-07-07 14:48:00,82.9,70.0,30.00,ESE,112,1.0,2.0,65,0.00,,,0.00,weatherlink.com 1.10,2013-07-07 18:48:00,
2013-07-07 15:03:00,83.4,71.0,30.00,ENE,70,1.0,1.0,67,0.00,,,0.00,weatherlink.com 1.10,2013-07-07 19:03:00,
2013-07-07 15:18:00,83.0,70.0,30.00,South,179,2.0,2.0,66,0.00,,,0.00,weatherlink.com 1.10,2013-07-07 19:18:00,
2013-07-07 15:33:00,83.3,69.0,30.00,SSE,148,1.0,5.0,63,0.00,,,0.00,weatherlink.com 1.10,2013-07-07 19:33:00,
2013-07-07 15:48:00,81.7,72.0,29.99,ESE,117,0.0,3.0,72,0.00,,,0.00,weatherlink.com 1.10,2013-07-07 19:48:00,
2013-07-07 16:03:00,82.6,69.0,29.99,NNE,30,1.0,3.0,64,0.00,,,0.00,weatherlink.com 1.10,2013-07-07 20:03:00,
2013-07-07 16:18:00,83.4,68.0,29.99,NNE,20,3.0,4.0,61,0.00,,,0.00,weatherlink.com 1.10,2013-07-07 20:18:00,
2013-07-07 16:33:00,83.6,70.0,29.98,SW,235,0.0,3.0,63,0.00,,,0.00,weatherlink.com 1.10,2013-07-07 20:33:00,
2013-07-07 16:48:00,84.3,70.0,29.98,East,99,0.0,4.0,63,0.00,,,0.00,weatherlink.com 1.10,2013-07-07 20:48:00,
2013-07-07 17:03:00,84.4,67.0,29.98,East,98,0.0,3.0,57,0.00,,,0.00,weatherlink.com 1.10,2013-07-07 21:03:00,
2013-07-07 17:18:00,84.9,69.0,29.98,North,358,1.0,2.0,60,0.00,,,0.00,weatherlink.com 1.10,2013-07-07 21:18:00,
2013-07-07 17:33:00,83.8,69.0,29.97,East,100,0.0,3.0,61,0.00,,,0.00,weatherlink.com 1.10,2013-07-07 21:33:00,
2013-07-07 17:48:00,83.7,70.0,29.97,West,264,0.0,4.0,63,0.00,,,0.00,weatherlink.com 1.10,2013-07-07 21:48:00,
2013-07-07 18:03:00,83.1,68.0,29.97,West,274,2.0,6.0,61,0.00,,,0.00,weatherlink.com 1.10,2013-07-07 22:03:00,
2013-07-07 18:18:00,83.0,69.0,29.96,ESE,120,0.0,5.0,62,0.00,,,0.00,weatherlink.com 1.10,2013-07-07 22:18:00,
2013-07-07 18:33:00,83.3,69.0,29.96,NE,40,0.0,1.0,63,0.00,,,0.00,weatherlink.com 1.10,2013-07-07 22:33:00,
2013-07-07 18:48:00,83.0,68.0,29.96,NE,39,1.0,3.0,60,0.00,,,0.00,weatherlink.com 1.10,2013-07-07 22:48:00,
2013-07-07 19:03:00,82.8,68.0,29.96,East,94,0.0,3.0,61,0.00,,,0.00,weatherlink.com 1.10,2013-07-07 23:03:00,
2013-07-07 19:18:00,81.4,68.0,29.96,SW,221,0.0,2.0,64,0.00,,,0.00,weatherlink.com 1.10,2013-07-07 23:18:00,
2013-07-07 19:33:00,80.4,68.0,29.96,SW,221,0.0,0.0,66,0.00,,,0.00,weatherlink.com 1.10,2013-07-07 23:33:00,
2013-07-07 19:48:00,79.5,68.0,29.97,SE,136,0.0,0.0,68,0.00,,,0.00,weatherlink.com 1.10,2013-07-07 23:48:00,
2013-07-07 20:03:00,78.6,68.0,29.96,SE,135,0.0,0.0,71,0.00,,,0.00,weatherlink.com 1.10,2013-07-08 00:03:00,
2013-07-07 20:18:00,77.8,68.0,29.97,ESE,111,0.0,0.0,72,0.00,,,0.00,weatherlink.com 1.10,2013-07-08 00:18:00,
2013-07-07 20:33:00,77.0,69.0,29.97,East,98,0.0,0.0,75,0.00,,,0.00,weatherlink.com 1.10,2013-07-08 00:33:00,
2013-07-07 20:48:00,76.0,68.0,29.98,East,98,0.0,0.0,76,0.00,,,0.00,weatherlink.com 1.10,2013-07-08 00:48:00,
2013-07-07 21:03:00,74.6,68.0,29.98,East,98,0.0,0.0,79,0.00,,,0.00,weatherlink.com 1.10,2013-07-08 01:03:00,
2013-07-07 21:18:00,73.5,68.0,29.98,East,97,0.0,0.0,82,0.00,,,0.00,weatherlink.com 1.10,2013-07-08 01:18:00,
2013-07-07 21:33:00,73.6,68.0,29.99,SE,125,0.0,0.0,83,0.00,,,0.00,weatherlink.com 1.10,2013-07-08 01:33:00,
2013-07-07 21:48:00,73.3,68.0,29.99,SE,129,0.0,2.0,84,0.00,,,0.00,weatherlink.com 1.10,2013-07-08 01:48:00,
2013-07-07 22:03:00,72.5,68.0,30.00,ESE,115,0.0,1.0,86,0.00,,,0.00,weatherlink.com 1.10,2013-07-08 02:03:00,
2013-07-07 22:18:00,72.7,68.0,30.00,ESE,104,0.0,1.0,86,0.00,,,0.00,weatherlink.com 1.10,2013-07-08 02:18:00,
2013-07-07 22:33:00,72.7,68.0,30.00,ESE,111,1.0,1.0,85,0.00,,,0.00,weatherlink.com 1.10,2013-07-08 02:33:00,
2013-07-07 22:48:00,73.2,68.0,30.01,ENE,65,0.0,2.0,84,0.00,,,0.00,weatherlink.com 1.10,2013-07-08 02:48:00,
2013-07-07 23:03:00,73.2,69.0,30.01,ESE,117,0.0,1.0,85,0.00,,,0.00,weatherlink.com 1.10,2013-07-08 03:03:00,
2013-07-07 23:19:00,72.9,68.0,30.01,ESE,114,0.0,3.0,85,0.00,,,0.00,weatherlink.com 1.10,2013-07-08 03:19:00,
2013-07-07 23:34:00,72.2,68.0,30.01,East,91,0.0,2.0,87,0.00,,,0.00,weatherlink.com 1.10,2013-07-08 03:34:00,
2013-07-07 23:49:00,72.2,68.0,30.01,ESE,120,1.0,2.0,87,0.00,,,0.00,weatherlink.com 1.10,2013-07-08 03:49:00,